Latest Weather Observations for Whyalla

IDS60801

Issued at 3:02 am CDT Monday 2 March 2015 (issued every 30 minutes, with the page automatically refreshed every 10 minutes)

About weather observations | Map of weather stations | Latest weather observations for SA | Other Formats
Station Details ID: 018120 Name: WHYALLA AERO Lat: -33.05 Lon: 137.52 Height: 6.5 m
Data from the previous 72 hours. | See also: Recent months at Whyalla
Date/Time
CDT
Temp
°C
App
Temp
°C
Dew
Point
Rel
Hum
%
Delta-T
°C
Wind Press
QNH
hPa
Press
MSL
hPa
Rain
since 9 am
mm
Dir
 
Spd
km/h
Gust
km/h
Spd
kts
Gust
kts
02/03:00am 18.7 17.2 13.1 70 3.2 SE 13 20 7 11 1012.5 1012.4 0.0
02/02:30am 18.8 17.1 12.3 66 3.6 SE 13 20 7 11 1013.1 1013.0 0.0
02/02:00am 19.4 17.5 11.9 62 4.2 SE 13 19 7 10 1013.2 1013.1 0.0
02/01:30am 19.7 18.1 13.9 69 3.3 SSE 15 22 8 12 1013.5 1013.4 0.0
02/01:00am 19.6 17.4 14.4 72 3.0 S 19 24 10 13 1014.0 1013.9 0.0
02/12:30am 19.6 17.2 14.4 72 3.0 S 20 28 11 15 1014.5 1014.4 0.0
02/12:00am 19.3 16.7 13.9 71 3.1 S 20 28 11 15 1014.9 1014.8 0.0
 
Date/Time
CDT
Temp
°C
App
Temp
°C
Dew
Point
Rel
Hum
%
Delta-T
°C
Wind Press
QNH
hPa
Press
MSL
hPa
Rain
since 9 am
mm
Dir
 
Spd
km/h
Gust
km/h
Spd
kts
Gust
kts
01/11:30pm 19.5 16.8 13.4 68 3.5 S 20 32 11 17 1015.5 1015.4 0.0
01/11:00pm 19.8 17.0 13.3 66 3.7 SSE 20 28 11 15 1015.8 1015.7 0.0
01/10:30pm 20.1 17.3 13.3 65 3.9 SSE 20 28 11 15 1015.7 1015.6 0.0
01/10:00pm 20.6 18.0 13.8 65 3.9 SSE 20 30 11 16 1015.2 1015.1 0.0
01/09:30pm 21.2 18.3 12.9 59 4.7 SSE 20 30 11 16 1014.9 1014.8 0.0
01/09:00pm 21.0 17.5 14.6 67 3.7 SSW 26 39 14 21 1014.5 1014.4 0.0
01/08:30pm 21.1 16.9 14.7 67 3.8 SSW 30 39 16 21 1014.5 1014.4 0.0
01/08:00pm 21.2 16.8 14.1 64 4.1 SSW 30 39 16 21 1014.1 1014.0 0.0
01/07:30pm 21.5 15.6 13.7 61 4.5 SSW 37 50 20 27 1013.8 1013.7 0.0
01/07:00pm 22.1 15.3 13.2 57 5.1 SSW 41 50 22 27 1013.7 1013.6 0.0
01/06:30pm 22.6 16.2 13.1 55 5.5 SSW 39 52 21 28 1013.5 1013.4 0.0
01/06:00pm 22.7 15.4 11.7 49 6.2 SSW 41 52 22 28 1013.5 1013.4 0.0
01/05:30pm 22.9 16.5 11.9 50 6.2 SSW 37 48 20 26 1013.8 1013.7 0.0
01/05:00pm 22.9 16.5 13.1 54 5.6 SSW 39 48 21 26 1014.1 1014.0 0.0
01/04:30pm 22.7 16.7 13.2 55 5.5 SSW 37 48 20 26 1014.2 1014.1 0.0
01/04:00pm 22.5 16.2 12.2 52 5.8 S 37 50 20 27 1014.3 1014.2 0.0
01/03:30pm 23.4 17.9 12.4 50 6.3 S 33 48 18 26 1014.5 1014.4 0.0
01/03:00pm 23.1 17.0 11.8 49 6.4 S 35 46 19 25 1014.9 1014.8 0.0
01/02:30pm 22.8 17.2 11.5 49 6.3 S 32 44 17 24 1015.2 1015.1 0.0
01/02:00pm 22.5 18.1 11.6 50 6.1 S 26 39 14 21 1015.5 1015.4 0.0
01/01:30pm 21.7 17.7 11.7 53 5.6 S 24 33 13 18 1015.9 1015.8 0.0
01/01:00pm 21.4 17.6 11.1 52 5.7 SSE 22 33 12 18 1016.4 1016.3 0.0
01/12:30pm 21.8 17.5 10.6 49 6.1 SE 24 35 13 19 1016.7 1016.6 0.0
01/12:00pm 21.1 16.4 10.6 51 5.7 SSE 26 37 14 20 1017.0 1016.9 0.0
01/11:30am 21.5 16.2 10.0 48 6.2 SSE 28 39 15 21 1017.0 1016.9 0.0
01/11:00am 20.2 15.2 9.5 50 5.7 SSE 26 39 14 21 1017.0 1016.9 0.0
01/10:30am 20.5 15.8 9.1 48 6.0 SSE 24 35 13 19 1016.9 1016.8 0.0
01/10:00am 19.3 14.6 9.2 52 5.3 SSE 24 35 13 19 1016.7 1016.6 0.0
01/09:30am 19.5 15.3 9.7 53 5.2 SSE 22 32 12 17 1016.4 1016.3 0.0
01/09:00am 18.5 13.6 8.5 52 5.2 SSE 24 33 13 18 1016.1 1016.0 0.0
01/08:30am 18.2 13.3 8.5 53 5.0 SSE 24 35 13 19 1015.7 1015.6 0.0
01/08:00am 18.4 12.5 8.9 54 4.9 SSE 30 43 16 23 1015.2 1015.1 0.0
01/07:30am 18.2 12.6 10.3 60 4.2 SSE 30 43 16 23 1014.7 1014.6 0.0
01/07:00am 18.4 13.6 11.5 64 3.8 SSE 28 39 15 21 1014.2 1014.1 0.0
01/06:30am 18.5 13.6 11.3 63 3.9 SSE 28 43 15 23 1013.6 1013.5 0.0
01/06:00am 18.8 14.1 11.9 64 3.8 SSE 28 43 15 23 1013.0 1012.9 0.0
01/05:30am 19.3 14.0 9.8 54 5.1 S 28 41 15 22 1012.9 1012.8 0.0
01/05:00am 18.9 14.3 12.2 65 3.7 SSE 28 39 15 21 1012.6 1012.5 0.0
01/04:30am 19.5 15.2 10.8 57 4.7 S 24 35 13 19 1012.3 1012.2 0.0
01/04:00am 19.5 14.6 11.3 59 4.5 S 28 39 15 21 1012.2 1012.1 0.0
01/03:30am 19.5 14.5 12.3 63 4.0 S 30 43 16 23 1011.9 1011.8 0.0
01/03:00am 19.6 14.8 12.8 65 3.8 S 30 43 16 23 1011.9 1011.8 0.0
01/02:30am 19.7 15.3 12.9 65 3.8 S 28 39 15 21 1011.9 1011.8 0.0
01/02:00am 19.8 15.3 13.7 68 3.5 S 30 44 16 24 1011.8 1011.7 0.0
01/01:30am 19.8 14.6 13.3 66 3.7 S 33 44 18 24 1011.7 1011.6 0.0
01/01:00am 20.1 15.5 14.5 70 3.3 S 32 44 17 24 1011.8 1011.7 0.0
01/12:30am 20.4 15.1 15.2 72 3.1 S 37 50 20 27 1011.6 1011.5 0.0
01/12:00am 20.4 14.8 15.4 73 3.0 SSW 39 52 21 28 1011.4 1011.3 0.0
 
Date/Time
CDT
Temp
°C
App
Temp
°C
Dew
Point
Rel
Hum
%
Delta-T
°C
Wind Press
QNH
hPa
Press
MSL
hPa
Rain
since 9 am
mm
Dir
 
Spd
km/h
Gust
km/h
Spd
kts
Gust
kts
28/11:30pm 20.7 15.6 15.7 73 3.0 SSW 37 52 20 28 1011.5 1011.4 0.0
28/11:00pm 20.5 16.5 15.1 71 3.2 SSW 30 41 16 22 1011.5 1011.4 0.0
28/10:30pm 20.6 15.8 14.5 68 3.6 SSW 33 46 18 25 1011.5 1011.4 0.0
28/10:00pm 20.8 15.7 15.8 73 3.0 SSW 37 50 20 27 1011.1 1011.0 0.0
28/09:30pm 21.2 15.9 16.4 74 2.9 SSW 39 57 21 31 1010.5 1010.4 0.0
28/09:27pm 21.3 16.1 16.5 74 2.9 SSW 39 57 21 31 1010.5 1010.4 0.0
28/09:00pm 21.6 16.1 16.8 74 2.9 SSW 41 56 22 30 1009.7 1009.6 0.0
28/08:30pm 22.0 16.0 16.5 71 3.3 SSW 43 56 23 30 1009.4 1009.3 0.0
28/08:00pm 22.9 17.9 16.2 66 4.1 SSW 37 54 20 29 1008.8 1008.7 0.0
28/07:58pm 22.9 18.3 16.2 66 4.1 SSW 35 54 19 29 1008.7 1008.6 0.0
28/07:30pm 23.4 18.6 15.5 61 4.8 SSW 35 44 19 24 1008.2 1008.1 0.0
28/07:00pm 23.4 19.5 16.9 67 4.0 S 33 46 18 25 1007.8 1007.7 0.0
28/06:30pm 23.8 20.0 18.2 71 3.5 S 35 48 19 26 1007.5 1007.4 0.0
28/06:00pm 25.1 21.9 18.5 67 4.2 S 33 46 18 25 1006.9 1006.8 0.0
28/05:30pm 25.2 20.9 17.7 63 4.7 S 37 50 20 27 1006.2 1006.1 0.0
28/05:00pm 26.4 21.0 16.0 52 6.4 S 39 54 21 29 1005.5 1005.4 0.0
28/04:30pm 26.3 20.9 17.1 57 5.7 S 41 54 22 29 1004.7 1004.6 0.0
28/04:00pm 27.0 19.9 16.0 51 6.8 S 48 65 26 35 1004.5 1004.4 0.0
28/03:30pm 27.7 20.8 16.6 50 6.9 S 48 67 26 36 1003.9 1003.8 0.0
28/03:08pm 27.6 21.2 17.7 54 6.3 S 48 67 26 36 1004.0 1003.9 0.0
28/03:00pm 26.6 20.0 17.4 57 5.8 S 48 65 26 35 1003.6 1003.5 0.0
28/02:35pm 28.2 22.8 17.1 51 7.0 S 41 59 22 32 1003.4 1003.3 0.0
28/02:30pm 27.9 22.6 16.2 49 7.3 S 39 56 21 30 1003.3 1003.2 0.0
28/02:00pm 28.9 23.4 17.7 50 7.1 S 43 56 23 30 1003.4 1003.3 0.0
28/01:45pm 31.1 24.8 13.4 34 10.6 SSW 39 57 21 31 1003.0 1002.9 0.0
28/01:37pm 34.5 29.3 11.6 25 13.5 W 30 44 16 24 1002.9 1002.8 0.0
28/01:30pm 40.0 32.6 4.0 11 19.5 WNW 32 46 17 25 1002.5 1002.4 0.0
28/01:04pm 41.0 33.7 4.7 11 19.9 NW 32 50 17 27 1002.6 1002.5 0.0
28/01:00pm 39.8 31.8 3.8 11 19.4 NW 35 50 19 27 1002.7 1002.6 0.0
28/12:35pm 38.9 30.8 3.1 11 19.0 NW 35 54 19 29 1002.9 1002.8 0.0
28/12:30pm 39.1 30.9 4.5 12 18.8 NW 37 50 20 27 1003.1 1003.0 0.0
28/12:00pm 39.3 30.9 5.8 13 18.6 NNW 39 50 21 27 1003.4 1003.3 0.0
28/11:30am 38.8 31.1 5.4 13 18.4 NW 35 54 19 29 1003.7 1003.6 0.0
28/11:06am 37.2 31.2 7.2 16 16.8 NNW 28 46 15 25 1003.9 1003.8 0.0
28/11:00am 37.1 30.7 7.1 16 16.8 NNW 30 39 16 21 1004.0 1003.9 0.0
28/10:30am 35.8 30.0 7.8 18 15.8 NW 28 37 15 20 1004.1 1004.0 0.0
28/10:00am 34.4 29.6 8.9 21 14.5 N 24 30 13 16 1004.2 1004.1 0.0
28/09:30am 32.6 28.3 9.4 24 13.2 N 22 30 12 16 1004.1 1004.0 0.0
28/09:00am 29.6 27.4 12.1 34 10.2 NNW 15 19 8 10 1004.2 1004.1 -
28/08:30am 26.0 25.0 13.5 46 7.4 NNW 11 17 6 9 1004.1 1004.0 -
28/08:00am 22.7 22.1 13.5 56 5.3 NNW 9 13 5 7 1003.9 1003.8 -
28/07:30am 21.1 20.7 14.0 64 4.1 N 9 11 5 6 1003.5 1003.4 -
28/07:00am 20.6 19.5 14.3 67 3.7 NNW 13 13 7 7 1003.3 1003.2 -
28/06:30am 20.7 19.5 14.1 66 3.8 N 13 13 7 7 1003.2 1003.1 -
28/06:00am 21.0 19.9 14.4 66 3.9 NNW 13 15 7 8 1003.1 1003.0 -
28/05:30am 21.0 20.1 14.9 68 3.6 NNW 13 15 7 8 1002.9 1002.8 -
28/05:00am 20.6 20.3 14.5 68 3.6 NNW 9 11 5 6 1002.8 1002.7 -
28/04:30am 20.5 20.7 14.6 69 3.5 NW 7 9 4 5 1002.7 1002.6 -
28/04:00am 21.2 21.5 15.1 68 3.6 NW 7 9 4 5 1002.8 1002.7 -
28/03:30am 21.5 21.5 15.3 68 3.7 NW 9 11 5 6 1003.0 1002.9 -
28/03:00am 22.1 22.0 15.9 68 3.7 WNW 11 13 6 7 1003.4 1003.3 -
28/02:30am 23.4 24.0 17.8 71 3.5 NW 11 13 6 7 1003.7 1003.6 -
28/02:00am 23.7 25.5 17.4 68 3.9 WNW 4 7 2 4 1004.3 1004.2 -
28/01:30am 24.3 25.6 18.5 70 3.7 NNE 9 11 5 6 1004.7 1004.6 -
28/01:00am 25.0 - 18.0 65 4.4 - - - - - 1005.5 1005.4 -
28/12:00am 25.7 26.2 17.4 60 5.2 SSE 11 17 6 9 1005.8 1005.7 0.0
 
Date/Time
CDT
Temp
°C
App
Temp
°C
Dew
Point
Rel
Hum
%
Delta-T
°C
Wind Press
QNH
hPa
Press
MSL
hPa
Rain
since 9 am
mm
Dir
 
Spd
km/h
Gust
km/h
Spd
kts
Gust
kts
27/11:30pm 26.3 25.3 16.5 54 6.1 S 17 28 9 15 1006.3 1006.2 0.0
27/11:00pm 27.0 25.0 15.4 49 7.1 SSE 20 30 11 16 1006.6 1006.5 0.0
27/10:30pm 28.5 24.4 11.6 35 9.8 SSW 24 32 13 17 1007.2 1007.1 0.0
27/10:00pm 29.1 24.3 11.6 33 10.1 SSW 28 39 15 21 1007.5 1007.4 0.0
27/09:30pm 33.8 28.4 6.2 18 15.0 NW 24 41 13 22 1006.6 1006.5 0.0
27/09:00pm 34.6 28.8 4.2 15 16.1 WNW 24 33 13 18 1006.0 1005.9 0.0
27/08:30pm 34.9 30.8 4.4 15 16.2 W 15 28 8 15 1005.4 1005.3 0.0
27/08:00pm 34.3 31.6 5.8 17 15.4 SW 9 17 5 9 1004.9 1004.8 0.0
27/07:30pm 33.0 32.2 10.9 26 12.9 SE 6 9 3 5 1004.4 1004.3 0.0
27/07:00pm 33.8 32.8 10.4 24 13.5 ENE 6 11 3 6 1004.1 1004.0 0.0
27/06:30pm 33.5 30.0 10.2 24 13.5 E 19 24 10 13 1003.8 1003.7 0.0
27/06:00pm 33.5 30.3 11.9 27 12.8 E 20 26 11 14 1003.7 1003.6 0.0
27/05:30pm 34.4 31.4 12.1 26 13.3 E 19 28 10 15 1003.8 1003.7 0.0
27/05:00pm 34.9 32.6 11.9 24 13.7 ENE 15 24 8 13 1004.3 1004.2 0.0
27/04:30pm 35.4 33.3 12.4 25 13.9 E 15 24 8 13 1004.3 1004.2 0.0
27/04:00pm 37.2 35.8 9.7 19 16.0 N 7 15 4 8 1004.4 1004.3 0.0
27/03:30pm 37.4 34.1 6.4 15 17.2 NNW 13 24 7 13 1004.9 1004.8 0.0
27/03:00pm 38.2 34.4 6.0 14 17.8 NNW 15 24 8 13 1005.3 1005.2 0.0
27/02:30pm 36.9 33.4 7.0 16 16.7 WNW 15 26 8 14 1005.7 1005.6 0.0
27/02:00pm 37.3 33.4 7.3 16 16.8 NNW 17 37 9 20 1006.1 1006.0 0.0
27/01:30pm 36.7 32.2 6.8 16 16.6 NNW 20 35 11 19 1006.6 1006.5 0.0
27/01:00pm 35.0 34.7 13.2 27 13.2 ENE 7 13 4 7 1007.1 1007.0 0.0
27/12:30pm 35.8 32.1 7.8 18 15.7 NNW 17 22 9 12 1007.6 1007.5 0.0
27/12:00pm 34.6 31.0 8.4 20 14.8 NNE 17 28 9 15 1007.9 1007.8 0.0
27/11:30am 34.5 31.1 10.4 23 14.0 N 19 30 10 16 1008.2 1008.1 0.0
27/11:00am 33.4 30.0 10.7 25 13.2 N 19 26 10 14 1008.8 1008.7 0.0
27/10:30am 31.5 29.6 11.8 30 11.6 N 13 19 7 10 1009.0 1008.9 0.0
27/10:00am 29.4 29.4 13.6 38 9.4 N 6 9 3 5 1009.2 1009.1 0.0
27/09:30am 27.4 27.9 15.1 47 7.5 N 6 7 3 4 1009.3 1009.2 0.0
27/09:00am 25.2 27.1 15.8 56 5.7 CALM 0 0 0 0 1009.1 1009.0 -

Other Formats:

Comma delimited format used in spreadsheet applications
http://www.bom.gov.au/fwo/IDS60801/IDS60801.95664.axf

JavaScript Object Notation format (JSON) in row-major order
http://www.bom.gov.au/fwo/IDS60801/IDS60801.95664.json